Dryden, Michigan
Current Conditions -  °F | °C
As of 2:54 AM on Tuesday 21 Oct 2014 (Local Time) from KD95 Reporting Station
Overcast Overcast  
Wind Chill: 45°   Ceiling: 1500
Heat Index: 47°   Visibility: 10mi
Dew Point: 43°   Wind: 6mph
Humidity: 85%   Direction: 350°N
Pressure: 29.89"   Gusts: NA
Location:  42.95°N, 83.12°W
Report Text: KD95 210654Z AUTO 35005KT 10SM OVC015 09/06 A2989 RMK AO2 T00850061
Loading
Personal Weather Stations






























Interactive Weather Map
Tropical Storm Tracking
New forecast layout! Learn more

10-Day Weather Forecast

Advertisements
Track Severe Weather on mobile